createdAt,value
2023-12-15T00:01:56.550Z,6.68
2023-12-15T00:04:23.187Z,6.62
2023-12-15T00:06:49.833Z,6.59
2023-12-15T00:09:16.685Z,6.84
2023-12-15T00:11:43.331Z,6.88
2023-12-15T00:14:10.303Z,6.72
2023-12-15T00:16:36.933Z,6.97
2023-12-15T00:19:04.387Z,6.95
2023-12-15T00:21:31.222Z,6.98
2023-12-15T00:23:57.951Z,7.09
2023-12-15T00:26:24.594Z,7.07
2023-12-15T00:28:51.267Z,6.92
2023-12-15T00:31:18.348Z,7.04
2023-12-15T00:33:45.043Z,7.01
2023-12-15T00:36:11.756Z,7.07
2023-12-15T00:38:38.422Z,7.09
2023-12-15T00:41:05.490Z,6.99
2023-12-15T00:43:32.178Z,6.91
2023-12-15T00:45:59.042Z,6.68
2023-12-15T00:48:25.722Z,6.88
2023-12-15T00:50:52.400Z,6.89
2023-12-15T00:53:19.131Z,6.88
2023-12-15T00:55:45.787Z,6.83
2023-12-15T00:58:12.468Z,6.67
2023-12-15T01:00:39.176Z,6.69
2023-12-15T01:03:06.184Z,6.78
2023-12-15T01:05:32.999Z,6.97
2023-12-15T01:07:59.765Z,6.83
2023-12-15T01:10:26.384Z,6.83
2023-12-15T01:12:52.967Z,6.90
2023-12-15T01:15:19.955Z,6.81
2023-12-15T01:17:46.640Z,6.89
2023-12-15T01:20:14.958Z,6.84
2023-12-15T01:22:41.661Z,7.01
2023-12-15T01:25:08.457Z,7.05
2023-12-15T01:27:35.792Z,7.06
2023-12-15T01:30:03.356Z,6.96
2023-12-15T01:32:30.052Z,7.07
2023-12-15T01:34:57.112Z,7.09
2023-12-15T01:37:23.798Z,7.05
2023-12-15T01:39:51.267Z,7.03
2023-12-15T01:42:17.893Z,7.03
2023-12-15T01:44:44.847Z,6.93
2023-12-15T01:47:15.107Z,6.89
2023-12-15T01:49:41.819Z,6.82
2023-12-15T01:52:08.503Z,6.72
2023-12-15T01:54:35.124Z,6.67
2023-12-15T01:57:01.922Z,6.50
2023-12-15T01:59:41.980Z,6.46
2023-12-15T02:02:08.845Z,6.52
2023-12-15T02:04:35.463Z,6.45
2023-12-15T02:07:02.157Z,6.47
2023-12-15T02:09:28.778Z,6.57
2023-12-15T02:11:55.357Z,6.54
2023-12-15T02:14:22.197Z,6.54
2023-12-15T02:16:48.871Z,6.59
2023-12-15T02:19:15.505Z,6.63
2023-12-15T02:21:42.115Z,6.51
2023-12-15T02:24:08.804Z,6.55
2023-12-15T02:26:35.499Z,6.54
2023-12-15T02:29:02.147Z,6.54
2023-12-15T02:31:28.759Z,6.61
2023-12-15T02:33:55.419Z,6.69
2023-12-15T02:36:23.508Z,6.75
2023-12-15T02:38:51.168Z,6.72
2023-12-15T02:41:18.070Z,6.75
2023-12-15T02:43:44.669Z,6.77
2023-12-15T02:46:11.277Z,6.80
2023-12-15T02:48:37.968Z,6.98
2023-12-15T02:51:04.861Z,6.78
2023-12-15T02:53:31.694Z,6.84
2023-12-15T02:55:58.337Z,6.74
2023-12-15T02:58:25.012Z,6.74
2023-12-15T03:00:51.633Z,6.69
2023-12-15T03:03:18.466Z,6.67
2023-12-15T03:05:45.179Z,6.64
2023-12-15T03:08:11.928Z,6.68
2023-12-15T03:10:38.519Z,6.61
2023-12-15T03:13:05.124Z,6.85
2023-12-15T03:15:31.737Z,6.80
2023-12-15T03:17:58.491Z,6.90
2023-12-15T03:20:25.200Z,6.81
2023-12-15T03:22:51.853Z,6.89
2023-12-15T03:25:18.503Z,7.06
2023-12-15T03:27:45.141Z,7.10
2023-12-15T03:30:12.247Z,7.07
2023-12-15T03:32:38.920Z,7.03
2023-12-15T03:35:06.013Z,7.04
2023-12-15T03:37:32.758Z,7.04
2023-12-15T03:39:59.396Z,6.90
2023-12-15T03:42:26.005Z,6.96
2023-12-15T03:44:52.661Z,6.87
2023-12-15T03:47:19.354Z,6.99
2023-12-15T03:49:46.770Z,6.91
2023-12-15T03:52:13.348Z,6.90
2023-12-15T03:54:39.984Z,6.80
2023-12-15T03:57:06.723Z,6.67
2023-12-15T03:59:33.470Z,6.61
2023-12-15T04:02:00.405Z,6.56
2023-12-15T04:04:27.042Z,6.67
2023-12-15T04:06:53.662Z,6.52
2023-12-15T04:09:20.292Z,6.56
2023-12-15T04:11:47.691Z,6.49
2023-12-15T04:14:14.384Z,6.47
2023-12-15T04:16:42.177Z,6.40
2023-12-15T04:19:09.357Z,6.31
2023-12-15T04:21:36.289Z,6.45
2023-12-15T04:24:02.999Z,6.55
2023-12-15T04:26:29.721Z,6.55
2023-12-15T04:28:56.452Z,6.51
2023-12-15T04:31:23.324Z,6.52
2023-12-15T04:33:49.976Z,6.52
2023-12-15T04:36:22.982Z,6.48
2023-12-15T04:38:49.930Z,6.44
2023-12-15T04:41:24.499Z,6.39
2023-12-15T04:43:51.922Z,6.38
2023-12-15T04:46:31.585Z,6.19
2023-12-15T04:49:00.798Z,5.90
2023-12-15T04:51:27.790Z,5.92
2023-12-15T04:53:54.615Z,5.87
2023-12-15T04:56:21.421Z,5.84
2023-12-15T04:58:48.418Z,5.61
2023-12-15T05:01:15.641Z,5.76
2023-12-15T05:03:43.537Z,5.78
2023-12-15T05:06:28.998Z,5.77
2023-12-15T05:08:57.113Z,5.77
2023-12-15T05:11:23.917Z,5.62
2023-12-15T05:13:50.682Z,5.64
2023-12-15T05:16:18.097Z,5.62
2023-12-15T05:18:44.870Z,5.69
2023-12-15T05:21:11.549Z,5.80
2023-12-15T05:23:38.209Z,5.70
2023-12-15T05:26:05.243Z,5.70
2023-12-15T05:28:31.887Z,5.62
2023-12-15T05:30:58.565Z,5.69
2023-12-15T05:33:25.567Z,5.69
2023-12-15T05:35:52.331Z,5.95
2023-12-15T05:38:19.127Z,5.93
2023-12-15T05:40:45.818Z,5.77
2023-12-15T05:43:12.579Z,5.58
2023-12-15T05:45:39.207Z,5.80
2023-12-15T05:48:06.451Z,5.82
2023-12-15T05:50:36.663Z,5.85
2023-12-15T05:53:03.864Z,5.92
2023-12-15T05:55:30.608Z,5.77
2023-12-15T05:57:57.205Z,5.74
2023-12-15T06:00:23.836Z,5.86
2023-12-15T06:02:50.508Z,5.83
2023-12-15T06:05:17.953Z,5.56
2023-12-15T06:07:44.731Z,5.41
2023-12-15T06:10:11.881Z,5.38
2023-12-15T06:12:38.667Z,5.31
2023-12-15T06:15:09.286Z,5.25
2023-12-15T06:17:36.345Z,5.30
2023-12-15T06:20:03.560Z,5.23
2023-12-15T06:22:30.235Z,5.11
2023-12-15T06:24:56.874Z,5.16
2023-12-15T06:27:23.526Z,5.17
2023-12-15T06:29:50.173Z,5.06
2023-12-15T06:32:17.283Z,5.06
2023-12-15T06:34:44.519Z,5.13
2023-12-15T06:37:11.386Z,5.18
2023-12-15T06:39:38.027Z,5.26
2023-12-15T06:42:04.894Z,5.27
2023-12-15T06:44:32.562Z,5.31
2023-12-15T06:46:59.451Z,5.31
2023-12-15T06:49:32.269Z,5.34
2023-12-15T06:52:00.698Z,5.41
2023-12-15T06:54:27.513Z,5.45
2023-12-15T06:56:54.239Z,5.46
2023-12-15T06:59:21.027Z,5.51
2023-12-15T07:01:47.756Z,5.63
2023-12-15T07:04:15.048Z,5.79
2023-12-15T07:06:41.910Z,5.69
2023-12-15T07:09:12.464Z,5.73
2023-12-15T07:11:41.209Z,5.89
2023-12-15T07:14:08.194Z,5.95
2023-12-15T07:16:34.927Z,5.93
2023-12-15T07:19:01.880Z,5.93
2023-12-15T07:21:28.675Z,6.01
2023-12-15T07:23:55.428Z,6.06
2023-12-15T07:26:22.508Z,6.19
2023-12-15T07:28:49.190Z,6.19
2023-12-15T07:31:15.925Z,6.07
2023-12-15T07:33:42.690Z,6.07
2023-12-15T07:36:11.019Z,6.09
2023-12-15T07:38:37.804Z,6.03
2023-12-15T07:41:06.451Z,6.12
2023-12-15T07:43:33.811Z,6.15
2023-12-15T07:46:00.497Z,6.23
2023-12-15T07:48:28.510Z,6.17
2023-12-15T07:50:55.907Z,6.21
2023-12-15T07:53:22.715Z,6.07
2023-12-15T07:55:49.780Z,5.89
2023-12-15T07:58:16.589Z,5.84
2023-12-15T08:00:43.372Z,5.84
2023-12-15T08:03:10.174Z,5.87
2023-12-15T08:05:37.211Z,5.84
2023-12-15T08:08:04.197Z,5.91
2023-12-15T08:10:32.167Z,5.87
2023-12-15T08:12:58.832Z,5.82
2023-12-15T08:15:25.489Z,5.78
2023-12-15T08:17:53.638Z,5.79
2023-12-15T08:20:20.491Z,5.70
2023-12-15T08:22:47.237Z,5.72
2023-12-15T08:25:13.876Z,5.72
2023-12-15T08:27:41.893Z,5.84
2023-12-15T08:30:10.114Z,5.76
2023-12-15T08:32:37.081Z,5.77
2023-12-15T08:35:05.142Z,5.67
2023-12-15T08:37:31.996Z,5.77
2023-12-15T08:39:58.645Z,5.73
2023-12-15T08:42:25.392Z,5.81
2023-12-15T08:44:52.206Z,5.80
2023-12-15T08:47:18.989Z,5.78
2023-12-15T08:49:45.666Z,5.63
2023-12-15T08:52:12.766Z,5.72
2023-12-15T08:54:39.474Z,5.79
2023-12-15T08:57:06.293Z,5.72
2023-12-15T08:59:33.032Z,5.68
2023-12-15T09:02:00.019Z,5.69
2023-12-15T09:04:26.718Z,5.70
2023-12-15T09:06:53.661Z,5.76
2023-12-15T09:09:23.529Z,5.84
2023-12-15T09:11:50.404Z,5.70
2023-12-15T09:14:17.651Z,5.84
2023-12-15T09:16:44.435Z,5.77
2023-12-15T09:19:11.271Z,5.87
2023-12-15T09:21:38.042Z,5.92
2023-12-15T09:24:05.105Z,5.82
2023-12-15T09:26:32.813Z,5.76
2023-12-15T09:28:59.573Z,5.85
2023-12-15T09:31:26.245Z,5.75
2023-12-15T09:33:53.056Z,5.97
2023-12-15T09:36:19.754Z,5.97
2023-12-15T09:38:46.393Z,5.96
2023-12-15T09:41:14.047Z,5.92
2023-12-15T09:43:41.056Z,5.97
2023-12-15T09:46:08.082Z,5.97
2023-12-15T09:48:36.187Z,6.00
2023-12-15T09:51:06.440Z,6.11
2023-12-15T09:53:36.562Z,6.15
2023-12-15T09:56:03.883Z,6.14
2023-12-15T09:58:30.732Z,6.24
2023-12-15T10:00:57.533Z,6.28
2023-12-15T10:03:24.818Z,6.32
2023-12-15T10:05:51.530Z,6.32
2023-12-15T10:08:24.259Z,6.44
2023-12-15T10:10:54.518Z,6.63
2023-12-15T10:13:21.186Z,6.59
2023-12-15T10:15:54.833Z,6.58
2023-12-15T10:18:29.342Z,6.70
2023-12-15T10:21:02.574Z,6.67
2023-12-15T10:23:30.808Z,6.84
2023-12-15T10:26:04.351Z,6.74
2023-12-15T10:28:39.795Z,6.77
2023-12-15T10:31:07.579Z,6.75
2023-12-15T10:33:35.406Z,6.86
2023-12-15T10:36:03.271Z,6.80
2023-12-15T10:38:32.913Z,6.84
2023-12-15T10:41:00.739Z,6.96
2023-12-15T10:43:28.841Z,6.83
2023-12-15T10:45:55.858Z,6.61
2023-12-15T10:48:22.618Z,7.01
2023-12-15T10:50:50.258Z,7.08
2023-12-15T10:53:17.386Z,7.09
2023-12-15T10:55:47.849Z,7.05
2023-12-15T10:58:15.136Z,7.12
2023-12-15T11:00:41.914Z,7.10
2023-12-15T11:03:11.986Z,7.21
2023-12-15T11:05:41.603Z,7.22
2023-12-15T11:08:08.915Z,7.29
2023-12-15T11:10:37.288Z,7.26
2023-12-15T11:13:04.014Z,7.19
2023-12-15T11:15:30.674Z,7.15
2023-12-15T11:18:01.280Z,7.15
2023-12-15T11:20:29.867Z,7.26
2023-12-15T11:23:06.227Z,7.30
2023-12-15T11:25:38.215Z,7.28
2023-12-15T11:28:17.500Z,7.43
2023-12-15T11:30:56.328Z,7.20
2023-12-15T11:33:33.583Z,7.41
2023-12-15T11:36:03.113Z,7.49
2023-12-15T11:38:30.769Z,7.50
2023-12-15T11:40:58.346Z,7.48
2023-12-15T11:43:25.390Z,7.45
2023-12-15T11:45:53.759Z,7.56
2023-12-15T11:48:20.995Z,7.56
2023-12-15T11:50:49.076Z,7.58
2023-12-15T11:53:16.554Z,7.43
2023-12-15T11:55:45.969Z,7.57
2023-12-15T11:58:16.550Z,7.72
2023-12-15T12:00:43.638Z,7.62
2023-12-15T12:03:14.891Z,7.73
2023-12-15T12:05:49.197Z,7.58
2023-12-15T12:08:16.277Z,7.63
2023-12-15T12:10:43.570Z,7.42
2023-12-15T12:13:11.958Z,7.63
2023-12-15T12:15:56.033Z,7.59
2023-12-15T12:18:25.621Z,7.68
2023-12-15T12:20:58.252Z,7.72
2023-12-15T12:23:35.503Z,7.78
2023-12-15T12:26:09.870Z,7.75
2023-12-15T12:28:50.390Z,7.80
2023-12-15T12:31:18.258Z,7.66
2023-12-15T12:33:45.499Z,7.78
2023-12-15T12:36:12.480Z,7.79
2023-12-15T12:38:39.308Z,7.82
2023-12-15T12:41:07.549Z,7.73
2023-12-15T12:43:35.214Z,7.94
2023-12-15T12:46:02.201Z,7.90
2023-12-15T12:48:31.560Z,7.80
2023-12-15T12:50:58.919Z,7.79
2023-12-15T12:53:26.722Z,7.92
2023-12-15T12:55:53.706Z,7.89
2023-12-15T12:58:20.415Z,8.07
2023-12-15T13:00:52.644Z,8.13
2023-12-15T13:03:20.662Z,7.92
2023-12-15T13:05:47.715Z,8.06
2023-12-15T13:08:15.476Z,8.12
2023-12-15T13:10:42.370Z,8.15
2023-12-15T13:13:09.793Z,8.17
2023-12-15T13:15:36.541Z,8.21
2023-12-15T13:18:03.763Z,8.33
2023-12-15T13:20:30.765Z,8.32
2023-12-15T13:22:58.801Z,8.26
2023-12-15T13:25:26.687Z,8.31
2023-12-15T13:27:53.456Z,8.39
2023-12-15T13:30:20.849Z,8.41
2023-12-15T13:32:49.465Z,8.38
2023-12-15T13:35:16.595Z,8.39
2023-12-15T13:37:44.291Z,8.05
2023-12-15T13:40:13.062Z,8.30
2023-12-15T13:42:40.303Z,8.33
2023-12-15T13:45:07.615Z,8.33
2023-12-15T13:47:34.853Z,8.44
2023-12-15T13:50:02.296Z,8.45
2023-12-15T13:52:29.339Z,8.49
2023-12-15T13:54:56.375Z,8.45
2023-12-15T13:57:23.098Z,8.49
2023-12-15T13:59:49.821Z,8.48
2023-12-15T14:02:16.543Z,8.51
2023-12-15T14:04:43.176Z,8.41
2023-12-15T14:07:09.823Z,8.38
2023-12-15T14:09:37.265Z,8.38
2023-12-15T14:12:04.388Z,8.60
2023-12-15T14:14:31.055Z,8.49
2023-12-15T14:16:57.865Z,8.45
2023-12-15T14:19:24.635Z,8.49
2023-12-15T14:21:51.300Z,8.55
2023-12-15T14:24:19.161Z,8.44
2023-12-15T14:26:46.727Z,8.46
2023-12-15T14:29:13.908Z,8.47
2023-12-15T14:31:40.582Z,8.41
2023-12-15T14:34:09.592Z,8.64
2023-12-15T14:36:37.127Z,8.46
2023-12-15T14:39:07.204Z,8.51
2023-12-15T14:41:36.590Z,8.61
2023-12-15T14:44:05.218Z,8.58
2023-12-15T14:46:32.949Z,8.76
2023-12-15T14:48:59.947Z,8.69
2023-12-15T14:51:27.020Z,8.70
2023-12-15T14:53:54.425Z,8.67
2023-12-15T14:56:21.937Z,8.72
2023-12-15T14:58:48.618Z,8.65
2023-12-15T15:01:15.475Z,8.74
2023-12-15T15:03:49.243Z,8.84
2023-12-15T15:06:27.054Z,8.72
2023-12-15T15:09:00.203Z,8.68
2023-12-15T15:11:27.740Z,8.71
2023-12-15T15:13:54.470Z,8.76
2023-12-15T15:16:21.152Z,8.63
2023-12-15T15:18:47.856Z,8.71
2023-12-15T15:21:14.639Z,8.80
2023-12-15T15:23:41.666Z,8.66
2023-12-15T15:26:09.809Z,8.82
2023-12-15T15:28:36.440Z,8.94
2023-12-15T15:31:03.199Z,8.92
2023-12-15T15:33:30.463Z,8.84
2023-12-15T15:35:57.391Z,8.89
2023-12-15T15:38:27.944Z,8.85
2023-12-15T15:40:54.957Z,8.82
2023-12-15T15:43:21.755Z,8.90
2023-12-15T15:45:48.680Z,8.88
2023-12-15T15:48:15.393Z,8.78
2023-12-15T15:50:42.215Z,8.98
2023-12-15T15:53:09.203Z,9.21
2023-12-15T15:55:35.903Z,9.13
2023-12-15T15:58:02.569Z,9.08
2023-12-15T16:00:29.260Z,8.98
2023-12-15T16:02:56.396Z,9.13
2023-12-15T16:05:23.398Z,9.30
2023-12-15T16:07:50.677Z,9.17
2023-12-15T16:10:17.845Z,9.20
2023-12-15T16:12:44.858Z,9.29
2023-12-15T16:15:11.678Z,9.13
2023-12-15T16:17:38.763Z,9.37
2023-12-15T16:20:07.868Z,9.23
2023-12-15T16:22:35.000Z,9.02
2023-12-15T16:25:01.795Z,8.99
2023-12-15T16:27:30.344Z,8.86
2023-12-15T16:29:58.942Z,8.97
2023-12-15T16:32:27.242Z,9.17
2023-12-15T16:34:53.889Z,9.25
2023-12-15T16:37:21.369Z,9.38
2023-12-15T16:39:48.106Z,9.54
2023-12-15T16:42:15.373Z,9.51
2023-12-15T16:44:52.380Z,9.38
2023-12-15T16:47:19.120Z,9.12
2023-12-15T16:49:46.399Z,9.27
2023-12-15T16:52:14.866Z,9.27
2023-12-15T16:54:41.884Z,8.93
2023-12-15T16:57:08.564Z,9.04
2023-12-15T16:59:38.461Z,9.01
2023-12-15T17:02:05.559Z,9.17
2023-12-15T17:04:32.319Z,9.55
2023-12-15T17:06:58.996Z,9.52
2023-12-15T17:09:28.683Z,9.50
2023-12-15T17:11:55.481Z,9.49
2023-12-15T17:14:22.144Z,9.71
2023-12-15T17:16:49.409Z,9.74
2023-12-15T17:19:16.176Z,9.89
2023-12-15T17:21:44.482Z,9.76
2023-12-15T17:24:11.132Z,9.79
2023-12-15T17:26:37.750Z,9.68
2023-12-15T17:29:04.417Z,9.33
2023-12-15T17:31:31.419Z,9.24
2023-12-15T17:33:58.179Z,9.49
2023-12-15T17:36:24.929Z,9.37
2023-12-15T17:38:51.613Z,9.32
2023-12-15T17:41:24.499Z,9.38
2023-12-15T17:43:51.227Z,9.32
2023-12-15T17:46:34.135Z,9.37
2023-12-15T17:49:01.584Z,9.31
2023-12-15T17:51:28.477Z,9.28
2023-12-15T17:53:55.156Z,9.40
2023-12-15T17:56:21.887Z,9.26
2023-12-15T17:58:48.578Z,9.45
2023-12-15T18:01:15.363Z,9.43
2023-12-15T18:03:42.116Z,9.48
2023-12-15T18:06:08.940Z,9.27
2023-12-15T18:08:35.577Z,9.28
2023-12-15T18:11:02.297Z,9.27
2023-12-15T18:13:28.956Z,9.44
2023-12-15T18:15:57.358Z,9.48
2023-12-15T18:18:24.136Z,9.31
2023-12-15T18:20:50.831Z,9.40
2023-12-15T18:23:17.449Z,9.37
2023-12-15T18:25:44.040Z,9.47
2023-12-15T18:28:16.973Z,9.43
2023-12-15T18:30:49.692Z,9.45
2023-12-15T18:33:16.638Z,9.62
2023-12-15T18:35:43.380Z,9.68
2023-12-15T18:38:09.986Z,9.74
2023-12-15T18:40:36.622Z,9.76
2023-12-15T18:43:04.320Z,9.63
2023-12-15T18:45:31.134Z,9.50
2023-12-15T18:47:58.069Z,9.45
2023-12-15T18:50:24.779Z,9.47
2023-12-15T18:52:51.544Z,9.49
2023-12-15T18:55:18.201Z,9.67
2023-12-15T18:57:49.556Z,9.71
2023-12-15T19:00:22.302Z,9.52
2023-12-15T19:02:50.321Z,9.70
2023-12-15T19:05:16.959Z,9.80
2023-12-15T19:07:45.084Z,9.98
2023-12-15T19:10:11.858Z,10.02
2023-12-15T19:12:38.741Z,10.12
2023-12-15T19:15:07.983Z,9.99
2023-12-15T19:17:34.711Z,10.08
2023-12-15T19:20:01.508Z,10.16
2023-12-15T19:22:28.176Z,10.03
2023-12-15T19:24:55.763Z,10.06
2023-12-15T19:27:22.589Z,10.22
2023-12-15T19:29:49.400Z,10.22
2023-12-15T19:32:16.020Z,10.17
2023-12-15T19:34:42.824Z,10.13
2023-12-15T19:37:09.972Z,10.17
2023-12-15T19:39:36.821Z,10.30
2023-12-15T19:42:03.654Z,10.36
2023-12-15T19:44:30.414Z,10.36
2023-12-15T19:46:57.110Z,10.04
2023-12-15T19:49:26.854Z,10.17
2023-12-15T19:51:55.415Z,10.27
2023-12-15T19:54:23.239Z,10.31
2023-12-15T19:56:49.891Z,10.46
2023-12-15T19:59:19.609Z,10.66
2023-12-15T20:01:47.533Z,10.71
2023-12-15T20:04:14.926Z,10.67
2023-12-15T20:06:41.660Z,10.75
2023-12-15T20:09:09.257Z,10.96
2023-12-15T20:11:39.284Z,10.99
2023-12-15T20:14:07.407Z,11.02
2023-12-15T20:16:35.233Z,11.06
2023-12-15T20:19:02.728Z,11.18
2023-12-15T20:21:30.185Z,11.27
2023-12-15T20:23:57.478Z,11.30
2023-12-15T20:26:24.072Z,11.26
2023-12-15T20:28:50.946Z,11.24
2023-12-15T20:31:18.084Z,11.33
2023-12-15T20:33:45.239Z,11.34
2023-12-15T20:36:19.017Z,11.34
2023-12-15T20:38:45.900Z,11.35
2023-12-15T20:41:20.375Z,11.31
2023-12-15T20:43:48.081Z,11.46
2023-12-15T20:46:15.009Z,11.42
2023-12-15T20:48:41.839Z,11.37
2023-12-15T20:51:10.096Z,11.27
2023-12-15T20:53:37.718Z,11.32
2023-12-15T20:56:04.956Z,11.34
2023-12-15T20:58:31.666Z,11.26
2023-12-15T21:00:58.340Z,11.44
2023-12-15T21:03:25.071Z,11.53
2023-12-15T21:05:51.905Z,11.51
2023-12-15T21:08:18.597Z,11.46
2023-12-15T21:10:45.700Z,11.30
2023-12-15T21:13:13.397Z,11.42
2023-12-15T21:15:43.282Z,11.33
2023-12-15T21:18:10.402Z,11.47
2023-12-15T21:20:37.382Z,11.34
2023-12-15T21:23:04.110Z,11.57
2023-12-15T21:25:30.766Z,11.58
2023-12-15T21:27:57.402Z,11.61
2023-12-15T21:30:25.141Z,11.43
2023-12-15T21:32:51.893Z,11.34
2023-12-15T21:35:18.594Z,11.48
2023-12-15T21:37:45.287Z,11.53
2023-12-15T21:40:12.253Z,11.54
2023-12-15T21:42:39.226Z,11.68
2023-12-15T21:45:06.459Z,11.67
2023-12-15T21:47:33.219Z,11.92
2023-12-15T21:50:01.412Z,11.58
2023-12-15T21:52:34.012Z,11.63
2023-12-15T21:55:01.937Z,11.72
2023-12-15T21:57:28.706Z,11.65
2023-12-15T21:59:55.435Z,11.69
2023-12-15T22:02:22.084Z,11.59
2023-12-15T22:04:48.758Z,11.67
2023-12-15T22:07:15.500Z,11.64
2023-12-15T22:09:42.138Z,11.65
2023-12-15T22:12:09.617Z,11.75
2023-12-15T22:14:42.627Z,11.71
2023-12-15T22:17:13.998Z,11.69
2023-12-15T22:19:41.053Z,11.99
2023-12-15T22:22:08.391Z,12.12
2023-12-15T22:24:35.281Z,11.98
2023-12-15T22:27:02.607Z,12.07
2023-12-15T22:29:29.279Z,12.22
2023-12-15T22:31:55.936Z,12.22
2023-12-15T22:34:22.702Z,12.03
2023-12-15T22:36:49.365Z,12.01
2023-12-15T22:39:16.056Z,12.10
2023-12-15T22:41:45.566Z,12.19
2023-12-15T22:44:12.874Z,11.96
2023-12-15T22:46:45.222Z,12.07
2023-12-15T22:49:12.035Z,11.75
2023-12-15T22:51:42.561Z,12.02
2023-12-15T22:54:13.642Z,11.90
2023-12-15T22:56:44.383Z,12.03
2023-12-15T22:59:14.139Z,11.73
2023-12-15T23:01:41.085Z,11.61
2023-12-15T23:04:08.758Z,11.62
2023-12-15T23:06:35.575Z,11.86
2023-12-15T23:09:02.194Z,11.88
2023-12-15T23:11:28.846Z,11.85
2023-12-15T23:13:55.449Z,11.86
2023-12-15T23:16:22.121Z,11.53
2023-12-15T23:18:49.152Z,11.63
2023-12-15T23:21:23.794Z,11.71
2023-12-15T23:23:55.285Z,11.61
2023-12-15T23:26:21.944Z,11.56
2023-12-15T23:28:48.772Z,11.66
2023-12-15T23:31:15.569Z,11.70
2023-12-15T23:33:42.313Z,11.81
2023-12-15T23:36:13.615Z,11.84
2023-12-15T23:38:41.148Z,11.77
2023-12-15T23:41:08.709Z,11.61
2023-12-15T23:43:35.429Z,11.95
2023-12-15T23:46:02.134Z,12.09
2023-12-15T23:48:28.927Z,12.06
2023-12-15T23:50:55.617Z,12.21
2023-12-15T23:53:22.248Z,12.15
2023-12-15T23:55:48.939Z,12.13
2023-12-15T23:58:15.628Z,12.10
